Alton, New York
Current Conditions -  °F | °C
As of 4:54 PM on Tuesday 25 Nov 2014 (Local Time) from KFZY Reporting Station
Broken Clouds Broken Clouds  
Wind Chill: 38°   Ceiling: 6000
Heat Index: 42°   Visibility: 10mi
Dew Point: 29°   Wind: 7mph
Humidity: 60%   Direction: 280°W
Pressure: 30"   Gusts: NA
Location:  43.21°N, 76.98°W
Report Text: KFZY 252154Z AUTO 28006KT 10SM BKN060 06/M02 A3000 RMK AO2 SLP161 T00561017
Loading
Personal Weather Stations






























Interactive Weather Map New forecast layout! Learn more

10-Day Weather Forecast

Advertisements
Track Severe Weather on mobile